createdAt,value
2019-04-03T00:03:59.909Z,94443.13
2019-04-03T00:06:29.292Z,94444.61
2019-04-03T00:08:58.766Z,94439.22
2019-04-03T00:11:28.056Z,94442.15
2019-04-03T00:13:57.605Z,94440.52
2019-04-03T00:16:26.810Z,94439.73
2019-04-03T00:18:56.085Z,94430.91
2019-04-03T00:21:25.319Z,94428.97
2019-04-03T00:23:54.623Z,94435.63
2019-04-03T00:26:24.108Z,94428.95
2019-04-03T00:28:53.493Z,94431.23
2019-04-03T00:31:23.352Z,94429.63
2019-04-03T00:33:53.957Z,94428.81
2019-04-03T00:36:23.791Z,94429.30
2019-04-03T00:38:54.765Z,94429.49
2019-04-03T00:41:25.229Z,94425.05
2019-04-03T00:43:55.060Z,94419.20
2019-04-03T00:46:25.476Z,94422.47
2019-04-03T00:48:55.856Z,94425.88
2019-04-03T00:51:27.501Z,94427.03
2019-04-03T00:53:58.005Z,94427.02
2019-04-03T00:56:28.014Z,94429.80
2019-04-03T01:01:32.179Z,94418.39
2019-04-03T01:04:01.472Z,94427.84
2019-04-03T01:06:31.047Z,94415.44
2019-04-03T01:09:00.246Z,94414.32
2019-04-03T01:11:30.595Z,94406.49
2019-04-03T01:14:01.845Z,94402.39
2019-04-03T01:16:33.086Z,94394.42
2019-04-03T01:19:05.114Z,94386.72
2019-04-03T01:21:33.352Z,94386.59
2019-04-03T01:24:02.545Z,94381.70
2019-04-03T01:26:31.903Z,94377.63
2019-04-03T01:29:01.109Z,94373.05
2019-04-03T01:31:30.385Z,94378.58
2019-04-03T01:33:59.973Z,94374.98
2019-04-03T01:36:29.249Z,94367.97
2019-04-03T01:38:58.457Z,94364.68
2019-04-03T01:41:27.736Z,94356.35
2019-04-03T01:43:56.934Z,94355.22
2019-04-03T01:46:27.630Z,94344.00
2019-04-03T01:48:58.431Z,94340.78
2019-04-03T01:51:29.745Z,94342.08
2019-04-03T01:53:59.328Z,94339.80
2019-04-03T01:56:28.520Z,94335.42
2019-04-03T01:58:58.107Z,94340.92
2019-04-03T02:01:27.312Z,94342.39
2019-04-03T02:03:56.581Z,94346.45
2019-04-03T02:06:25.898Z,94346.64
2019-04-03T02:08:55.119Z,94345.98
2019-04-03T02:11:24.321Z,94344.16
2019-04-03T02:13:53.589Z,94344.03
2019-04-03T02:16:23.209Z,94351.53
2019-04-03T02:18:55.460Z,94350.89
2019-04-03T02:21:27.205Z,94349.42
2019-04-03T02:23:55.823Z,94351.70
2019-04-03T02:26:24.995Z,94346.30
2019-04-03T02:28:54.261Z,94343.69
2019-04-03T02:31:23.463Z,94337.84
2019-04-03T02:33:52.743Z,94333.45
2019-04-03T02:36:21.947Z,94333.93
2019-04-03T02:38:51.541Z,94331.83
2019-04-03T02:41:22.372Z,94331.34
2019-04-03T02:43:51.887Z,94329.87
2019-04-03T02:46:22.568Z,94332.50
2019-04-03T02:48:51.922Z,94337.87
2019-04-03T02:51:21.129Z,94329.73
2019-04-03T02:53:50.410Z,94324.69
2019-04-03T02:56:19.590Z,94320.63
2019-04-03T02:58:48.864Z,94314.59
2019-04-03T03:01:18.078Z,94312.78
2019-04-03T03:03:49.434Z,94312.78
2019-04-03T03:06:18.428Z,94304.93
2019-04-03T03:09:27.070Z,94303.30
2019-04-03T03:12:35.650Z,94309.84
2019-04-03T03:15:45.017Z,94302.98
2019-04-03T03:18:15.744Z,94309.20
2019-04-03T03:27:16.769Z,94296.11
2019-04-03T03:30:39.624Z,94297.25
2019-04-03T03:36:44.685Z,94297.27
2019-04-03T03:42:10.844Z,94285.92
2019-04-03T03:48:15.195Z,94284.75
2019-04-03T03:51:24.294Z,94286.27
2019-04-03T03:54:32.953Z,94281.20
2019-04-03T03:57:41.843Z,94283.83
2019-04-03T04:00:52.331Z,94286.41
2019-04-03T04:04:01.058Z,94284.47
2019-04-03T04:06:34.794Z,94285.94
2019-04-03T04:09:22.461Z,94291.97
2019-04-03T04:12:12.359Z,94287.41
2019-04-03T04:14:41.966Z,94290.01
2019-04-03T04:17:15.492Z,94291.95
2019-04-03T04:19:43.131Z,94291.80
2019-04-03T04:22:15.604Z,94293.75
2019-04-03T04:24:44.409Z,94284.80
2019-04-03T04:27:13.853Z,94285.44
2019-04-03T04:32:37.872Z,94280.39
2019-04-03T04:35:10.355Z,94277.14
2019-04-03T04:37:40.134Z,94270.12
2019-04-03T04:40:09.993Z,94271.92
2019-04-03T04:42:39.879Z,94271.89
2019-04-03T04:45:09.797Z,94269.45
2019-04-03T04:47:40.148Z,94263.40
2019-04-03T04:50:09.352Z,94265.05
2019-04-03T04:52:38.635Z,94256.58
2019-04-03T04:55:08.204Z,94264.23
2019-04-03T04:57:41.008Z,94274.02
2019-04-03T05:00:09.794Z,94269.13
2019-04-03T05:02:39.096Z,94279.41
2019-04-03T05:05:09.181Z,94276.80
2019-04-03T05:07:39.304Z,94281.20
2019-04-03T05:10:08.619Z,94284.15
2019-04-03T05:12:39.086Z,94282.03
2019-04-03T05:15:48.462Z,94283.80
2019-04-03T05:18:17.707Z,94275.83
2019-04-03T05:20:49.077Z,94272.38
2019-04-03T05:23:18.772Z,94271.09
2019-04-03T05:25:47.977Z,94275.20
2019-04-03T05:28:17.236Z,94266.39
2019-04-03T05:30:49.293Z,94263.64
2019-04-03T05:33:18.573Z,94272.90
2019-04-03T05:35:47.782Z,94268.82
2019-04-03T05:38:17.073Z,94265.40
2019-04-03T05:40:46.270Z,94260.15
2019-04-03T05:43:15.948Z,94258.01
2019-04-03T05:45:45.323Z,94258.48
2019-04-03T05:48:17.688Z,94255.72
2019-04-03T05:53:41.254Z,94256.03
2019-04-03T05:56:12.590Z,94249.83
2019-04-03T05:58:53.774Z,94249.79
2019-04-03T06:01:12.672Z,94248.18
2019-04-03T06:03:44.895Z,94248.00
2019-04-03T06:06:14.421Z,94247.70
2019-04-03T06:08:43.802Z,94248.02
2019-04-03T06:11:13.253Z,94241.63
2019-04-03T06:13:42.500Z,94238.69
2019-04-03T06:16:11.779Z,94237.84
2019-04-03T06:18:40.985Z,94233.45
2019-04-03T06:21:10.487Z,94229.64
2019-04-03T06:23:41.191Z,94227.72
2019-04-03T06:26:10.471Z,94231.95
2019-04-03T06:28:42.417Z,94232.17
2019-04-03T06:31:10.671Z,94232.97
2019-04-03T06:33:40.071Z,94232.76
2019-04-03T06:36:09.334Z,94225.74
2019-04-03T06:38:38.763Z,94225.80
2019-04-03T06:41:09.653Z,94226.11
2019-04-03T06:43:38.927Z,94223.59
2019-04-03T06:46:09.839Z,94219.45
2019-04-03T06:48:39.196Z,94224.28
2019-04-03T06:51:09.269Z,94221.15
2019-04-03T06:53:38.445Z,94220.78
2019-04-03T06:56:08.927Z,94218.46
2019-04-03T06:58:40.191Z,94220.55
2019-04-03T07:01:09.697Z,94212.82
2019-04-03T07:03:39.229Z,94217.67
2019-04-03T07:06:08.979Z,94214.64
2019-04-03T07:08:41.108Z,94212.92
2019-04-03T07:11:22.853Z,94216.06
2019-04-03T07:13:42.099Z,94212.89
2019-04-03T07:16:11.673Z,94219.88
2019-04-03T07:18:42.320Z,94214.66
2019-04-03T07:23:46.054Z,94205.00
2019-04-03T07:26:15.345Z,94209.74
2019-04-03T07:28:44.554Z,94209.88
2019-04-03T07:31:13.857Z,94210.46
2019-04-03T07:33:43.068Z,94207.00
2019-04-03T07:36:12.334Z,94206.58
2019-04-03T07:38:41.643Z,94208.05
2019-04-03T07:41:10.846Z,94199.75
2019-04-03T07:43:40.326Z,94204.18
2019-04-03T07:46:09.510Z,94206.77
2019-04-03T07:48:38.869Z,94214.16
2019-04-03T07:51:08.461Z,94206.05
2019-04-03T07:53:39.220Z,94208.58
2019-04-03T07:56:08.816Z,94197.82
2019-04-03T07:58:38.105Z,94201.95
2019-04-03T08:01:09.545Z,94194.69
2019-04-03T08:03:39.204Z,94191.52
2019-04-03T08:06:08.415Z,94191.17
2019-04-03T08:08:37.619Z,94192.78
2019-04-03T08:11:07.011Z,94188.62
2019-04-03T08:13:38.387Z,94190.84
2019-04-03T08:16:07.306Z,94186.78
2019-04-03T08:18:36.516Z,94186.42
2019-04-03T08:21:05.997Z,94187.03
2019-04-03T08:23:36.722Z,94183.75
2019-04-03T08:26:06.215Z,94183.91
2019-04-03T08:28:35.438Z,94177.14
2019-04-03T08:34:00.172Z,94165.94
2019-04-03T08:36:29.558Z,94166.00
2019-04-03T08:39:00.587Z,94157.75
2019-04-03T08:41:48.940Z,94161.22
2019-04-03T08:44:18.355Z,94161.22
2019-04-03T08:47:06.687Z,94155.20
2019-04-03T08:49:36.508Z,94155.20
2019-04-03T08:52:06.179Z,94148.95
2019-04-03T08:54:36.722Z,94155.05
2019-04-03T08:57:25.013Z,94149.14
2019-04-03T08:59:54.295Z,94149.14
2019-04-03T09:02:23.505Z,94148.25
2019-04-03T09:04:52.948Z,94133.08
2019-04-03T09:07:24.634Z,94132.55
2019-04-03T09:09:53.218Z,94129.55
2019-04-03T09:12:22.404Z,94136.95
2019-04-03T09:17:45.809Z,94131.52
2019-04-03T09:20:35.566Z,94117.78
2019-04-03T09:23:05.369Z,94117.78
2019-04-03T09:25:36.003Z,94120.58
2019-04-03T09:28:12.675Z,94110.59
2019-04-03T09:30:41.820Z,94103.67
2019-04-03T09:33:11.256Z,94104.84
2019-04-03T09:35:42.817Z,94102.82
2019-04-03T09:38:11.829Z,94098.30
2019-04-03T09:40:41.352Z,94091.46
2019-04-03T09:43:10.654Z,94075.88
2019-04-03T09:46:00.641Z,94070.13
2019-04-03T09:48:41.855Z,94070.13
2019-04-03T09:51:11.129Z,94074.50
2019-04-03T09:53:40.400Z,94077.39
2019-04-03T09:56:28.920Z,94065.58
2019-04-03T09:58:58.581Z,94061.50
2019-04-03T10:01:27.757Z,94055.17
2019-04-03T10:03:57.020Z,94055.87
2019-04-03T10:06:26.446Z,94047.48
2019-04-03T10:08:57.210Z,94033.22
2019-04-03T10:11:26.415Z,94033.81
2019-04-03T10:13:57.494Z,94017.74
2019-04-03T10:16:26.600Z,94025.02
2019-04-03T10:18:55.867Z,94021.84
2019-04-03T10:21:44.242Z,94016.27
2019-04-03T10:24:13.493Z,94012.05
2019-04-03T10:26:42.698Z,94018.52
2019-04-03T10:29:12.033Z,94009.86
2019-04-03T10:31:41.640Z,94011.42
2019-04-03T10:34:14.447Z,94003.36
2019-04-03T10:36:43.779Z,94000.55
2019-04-03T10:39:15.949Z,93990.35
2019-04-03T10:41:46.217Z,93986.05
2019-04-03T10:44:15.475Z,93982.31
2019-04-03T10:46:44.665Z,93981.23
2019-04-03T10:49:14.020Z,93975.93
2019-04-03T10:51:43.863Z,93971.61
2019-04-03T10:54:14.595Z,93965.34
2019-04-03T10:56:44.120Z,93964.56
2019-04-03T10:59:17.944Z,93950.48
2019-04-03T11:01:46.100Z,93949.97
2019-04-03T11:06:50.507Z,93940.47
2019-04-03T11:09:19.929Z,93932.86
2019-04-03T11:11:49.129Z,93932.01
2019-04-03T11:14:18.698Z,93928.25
2019-04-03T11:16:49.324Z,93924.30
2019-04-03T11:19:19.815Z,93922.22
2019-04-03T11:21:49.753Z,93916.58
2019-04-03T11:24:20.451Z,93912.31
2019-04-03T11:26:51.762Z,93907.39
2019-04-03T11:29:20.742Z,93897.91
2019-04-03T11:34:44.628Z,93895.41
2019-04-03T11:37:13.898Z,93895.80
2019-04-03T11:39:45.656Z,93889.34
2019-04-03T11:42:23.886Z,93877.17
2019-04-03T11:44:45.207Z,93875.64
2019-04-03T11:47:14.764Z,93870.41
2019-04-03T11:49:44.514Z,93872.18
2019-04-03T11:52:13.697Z,93864.06
2019-04-03T11:55:01.894Z,93869.91
2019-04-03T11:57:31.420Z,93865.40
2019-04-03T12:00:01.081Z,93864.02
2019-04-03T12:02:30.356Z,93854.66
2019-04-03T12:05:01.330Z,93847.63
2019-04-03T12:07:30.589Z,93853.12
2019-04-03T12:10:02.785Z,93849.91
2019-04-03T12:12:30.775Z,93841.16
2019-04-03T12:14:59.961Z,93823.19
2019-04-03T12:17:30.306Z,93818.53
2019-04-03T12:20:00.183Z,93813.48
2019-04-03T12:22:29.490Z,93813.84
2019-04-03T12:24:58.651Z,93798.61
2019-04-03T12:27:27.910Z,93797.95
2019-04-03T12:29:57.097Z,93800.52
2019-04-03T12:32:36.660Z,93794.73
2019-04-03T12:34:57.553Z,93796.55
2019-04-03T12:37:28.225Z,93782.23
2019-04-03T12:39:58.235Z,93773.75
2019-04-03T12:42:28.816Z,93761.35
2019-04-03T12:44:59.835Z,93754.94
2019-04-03T12:47:30.404Z,93759.13
2019-04-03T12:49:59.856Z,93758.69
2019-04-03T12:52:29.091Z,93752.72
2019-04-03T12:54:58.672Z,93746.90
2019-04-03T12:57:28.240Z,93732.39
2019-04-03T12:59:57.847Z,93731.98
2019-04-03T13:02:28.417Z,93733.12
2019-04-03T13:05:00.240Z,93730.93
2019-04-03T13:07:28.639Z,93722.56
2019-04-03T13:09:57.970Z,93719.13
2019-04-03T13:12:27.895Z,93725.63
2019-04-03T13:14:58.264Z,93712.37
2019-04-03T13:17:27.841Z,93716.57
2019-04-03T13:20:03.215Z,93722.19
2019-04-03T13:22:29.909Z,93706.52
2019-04-03T13:25:00.635Z,93717.92
2019-04-03T13:27:32.370Z,93706.66
2019-04-03T13:30:02.449Z,93715.25
2019-04-03T13:32:32.173Z,93703.48
2019-04-03T13:35:04.224Z,93712.30
2019-04-03T13:37:32.377Z,93698.29
2019-04-03T13:40:05.019Z,93698.22
2019-04-03T13:42:32.566Z,93704.61
2019-04-03T13:45:01.827Z,93710.06
2019-04-03T13:47:31.013Z,93707.66
2019-04-03T13:50:03.313Z,93703.85
2019-04-03T13:52:40.152Z,93698.65
2019-04-03T13:55:03.797Z,93703.28
2019-04-03T13:57:33.706Z,93698.59
2019-04-03T14:02:59.622Z,93695.61
2019-04-03T14:05:32.331Z,93691.58
2019-04-03T14:08:00.477Z,93683.67
2019-04-03T14:10:31.213Z,93681.81
2019-04-03T14:13:00.396Z,93684.59
2019-04-03T14:15:30.090Z,93668.55
2019-04-03T14:17:59.332Z,93672.23
2019-04-03T14:21:08.277Z,93664.03
2019-04-03T14:23:40.622Z,93663.77
2019-04-03T14:26:13.414Z,93658.93
2019-04-03T14:28:42.094Z,93668.98
2019-04-03T14:31:12.842Z,93671.56
2019-04-03T14:33:45.677Z,93679.97
2019-04-03T14:36:13.611Z,93669.36
2019-04-03T14:38:44.275Z,93660.06
2019-04-03T14:41:13.534Z,93664.56
2019-04-03T14:43:43.054Z,93671.13
2019-04-03T14:46:12.329Z,93669.88
2019-04-03T14:48:41.634Z,93672.73
2019-04-03T14:51:12.168Z,93655.41
2019-04-03T14:53:41.850Z,93664.31
2019-04-03T14:56:11.507Z,93654.22
2019-04-03T14:58:42.551Z,93650.50
2019-04-03T15:01:13.429Z,93652.92
2019-04-03T15:03:42.594Z,93657.13
2019-04-03T15:06:12.362Z,93648.88
2019-04-03T15:08:42.793Z,93649.55
2019-04-03T15:11:12.430Z,93653.84
2019-04-03T15:13:43.183Z,93652.70
2019-04-03T15:16:12.422Z,93657.81
2019-04-03T15:21:16.530Z,93648.44
2019-04-03T15:23:47.428Z,93646.70
2019-04-03T15:26:19.421Z,93646.12
2019-04-03T15:28:49.707Z,93645.73
2019-04-03T15:31:20.246Z,93641.17
2019-04-03T15:33:49.798Z,93635.05
2019-04-03T15:36:19.437Z,93634.66
2019-04-03T15:38:48.980Z,93631.08
2019-04-03T15:41:18.357Z,93642.75
2019-04-03T15:43:50.748Z,93643.87
2019-04-03T15:46:18.725Z,93638.22
2019-04-03T15:48:50.999Z,93633.69
2019-04-03T15:51:20.950Z,93636.73
2019-04-03T15:54:10.470Z,93635.41
2019-04-03T15:59:15.312Z,93632.25
2019-04-03T16:01:45.710Z,93629.84
2019-04-03T16:04:14.946Z,93628.30
2019-04-03T16:06:44.216Z,93620.56
2019-04-03T16:09:13.480Z,93618.34
2019-04-03T16:11:43.078Z,93614.34
2019-04-03T16:14:13.695Z,93611.05
2019-04-03T16:17:03.507Z,93611.05
2019-04-03T16:19:33.406Z,93613.31
2019-04-03T16:22:02.733Z,93609.09
2019-04-03T16:24:32.452Z,93611.09
2019-04-03T16:27:03.006Z,93610.73
2019-04-03T16:29:32.630Z,93614.30
2019-04-03T16:32:01.922Z,93615.44
2019-04-03T16:34:31.434Z,93606.29
2019-04-03T16:37:01.184Z,93610.23
2019-04-03T16:39:32.948Z,93613.89
2019-04-03T16:42:03.764Z,93612.23
2019-04-03T16:44:34.533Z,93609.23
2019-04-03T16:47:03.867Z,93618.74
2019-04-03T16:49:33.520Z,93621.91
2019-04-03T16:52:16.444Z,93611.48
2019-04-03T16:54:57.423Z,93612.02
2019-04-03T16:57:26.728Z,93612.02
2019-04-03T16:59:56.794Z,93611.83
2019-04-03T17:02:27.946Z,93614.02
2019-04-03T17:04:57.374Z,93617.28
2019-04-03T17:07:26.649Z,93611.84
2019-04-03T17:09:55.868Z,93614.77
2019-04-03T17:12:25.074Z,93618.23
2019-04-03T17:14:56.328Z,93618.35
2019-04-03T17:17:25.831Z,93611.48
2019-04-03T17:19:55.594Z,93619.47
2019-04-03T17:22:26.029Z,93617.66
2019-04-03T17:24:56.412Z,93618.05
2019-04-03T17:27:29.693Z,93618.05
2019-04-03T17:29:57.290Z,93614.94
2019-04-03T17:32:29.064Z,93613.63
2019-04-03T17:34:57.474Z,93613.26
2019-04-03T17:37:29.680Z,93603.58
2019-04-03T17:39:57.722Z,93612.84
2019-04-03T17:42:27.002Z,93615.91
2019-04-03T17:44:56.206Z,93608.67
2019-04-03T17:47:25.543Z,93610.55
2019-04-03T17:49:54.750Z,93608.93
2019-04-03T17:52:43.567Z,93613.36
2019-04-03T17:55:13.172Z,93616.30
2019-04-03T17:57:44.548Z,93623.16
2019-04-03T18:00:14.420Z,93622.48
2019-04-03T18:02:43.647Z,93621.45
2019-04-03T18:05:52.293Z,93633.56
2019-04-03T18:08:21.831Z,93626.20
2019-04-03T18:10:51.441Z,93618.34
2019-04-03T18:13:23.183Z,93616.32
2019-04-03T18:18:41.407Z,93624.78
2019-04-03T18:21:12.966Z,93623.36
2019-04-03T18:23:41.807Z,93625.38
2019-04-03T18:26:11.176Z,93627.17
2019-04-03T18:28:40.733Z,93621.01
2019-04-03T18:31:10.072Z,93621.31
2019-04-03T18:33:39.489Z,93638.66
2019-04-03T18:36:08.699Z,93634.30
2019-04-03T18:38:38.545Z,93634.50
2019-04-03T18:41:08.894Z,93630.15
2019-04-03T18:43:38.901Z,93631.38
2019-04-03T18:46:08.131Z,93639.23
2019-04-03T18:48:37.667Z,93632.84
2019-04-03T18:51:07.310Z,93629.37
2019-04-03T18:53:36.555Z,93632.70
2019-04-03T18:56:05.965Z,93634.20
2019-04-03T18:58:35.177Z,93628.47
2019-04-03T19:01:04.466Z,93626.23
2019-04-03T19:03:36.192Z,93633.37
2019-04-03T19:06:04.664Z,93642.13
2019-04-03T19:08:33.858Z,93636.89
2019-04-03T19:11:07.631Z,93637.39
2019-04-03T19:13:34.141Z,93633.76
2019-04-03T19:16:03.390Z,93636.14
2019-04-03T19:18:32.599Z,93637.95
2019-04-03T19:21:01.798Z,93641.88
2019-04-03T19:23:31.351Z,93639.75
2019-04-03T19:26:00.575Z,93637.34
2019-04-03T19:28:29.825Z,93646.81
2019-04-03T19:30:59.045Z,93643.47
2019-04-03T19:33:28.363Z,93638.30
2019-04-03T19:35:58.652Z,93642.22
2019-04-03T19:38:28.559Z,93639.61
2019-04-03T19:40:57.755Z,93641.12
2019-04-03T19:43:27.067Z,93638.88
2019-04-03T19:49:05.328Z,93633.70
2019-04-03T19:51:37.194Z,93635.34
2019-04-03T19:54:05.989Z,93637.63
2019-04-03T19:56:35.270Z,93631.38
2019-04-03T19:59:04.963Z,93648.88
2019-04-03T20:01:38.770Z,93666.09
2019-04-03T20:04:06.532Z,93716.78
2019-04-03T20:09:49.922Z,93742.77
2019-04-03T20:12:19.118Z,93733.31
2019-04-03T20:14:57.891Z,93744.96
2019-04-03T20:17:19.789Z,93784.19
2019-04-03T20:19:48.971Z,93793.53
2019-04-03T20:22:18.230Z,93813.14
2019-04-03T20:24:59.454Z,93816.28
2019-04-03T20:27:18.980Z,93833.63
2019-04-03T20:29:48.891Z,93842.16
2019-04-03T20:32:18.155Z,93840.31
2019-04-03T20:34:47.372Z,93853.41
2019-04-03T20:37:16.644Z,93861.73
2019-04-03T20:39:46.133Z,93865.03
2019-04-03T20:42:15.381Z,93880.05
2019-04-03T20:44:48.001Z,93885.69
2019-04-03T20:47:15.544Z,93883.59
2019-04-03T20:49:44.739Z,93896.61
2019-04-03T20:52:14.064Z,93897.28
2019-04-03T20:54:43.264Z,93908.88
2019-04-03T20:57:13.606Z,93911.36
2019-04-03T20:59:52.526Z,93918.45
2019-04-03T21:02:14.450Z,93907.50
2019-04-03T21:04:46.471Z,93915.30
2019-04-03T21:07:14.602Z,93917.06
2019-04-03T21:09:43.835Z,93926.91
2019-04-03T21:12:13.031Z,93908.17
2019-04-03T21:14:42.273Z,93924.86
2019-04-03T21:17:11.465Z,93928.23
2019-04-03T21:19:40.715Z,93924.03
2019-04-03T21:22:09.893Z,93920.91
2019-04-03T21:27:34.129Z,93912.27
2019-04-03T21:30:03.480Z,93929.13
2019-04-03T21:32:32.679Z,93934.05
2019-04-03T21:37:39.693Z,93936.98
2019-04-03T21:40:07.698Z,93935.59
2019-04-03T21:42:36.908Z,93936.48
2019-04-03T21:45:07.508Z,93942.70
2019-04-03T21:47:37.370Z,93958.61
2019-04-03T21:50:46.001Z,93966.50
2019-04-03T21:53:15.241Z,93962.53
2019-04-03T21:55:44.489Z,93953.84
2019-04-03T21:58:13.673Z,93953.06
2019-04-03T22:04:00.954Z,93965.47
2019-04-03T22:06:30.608Z,93958.66
2019-04-03T22:09:00.673Z,93957.91
2019-04-03T22:11:30.843Z,93955.06
2019-04-03T22:14:00.043Z,93950.09
2019-04-03T22:16:29.400Z,93954.09
2019-04-03T22:18:58.586Z,93959.36
2019-04-03T22:21:27.859Z,93959.33
2019-04-03T22:23:57.104Z,93957.77
2019-04-03T22:26:26.635Z,93948.09
2019-04-03T22:28:55.900Z,93949.26
2019-04-03T22:31:25.441Z,93945.75
2019-04-03T22:33:54.702Z,93949.14
2019-04-03T22:36:24.201Z,93949.17
2019-04-03T22:38:53.471Z,93957.75
2019-04-03T22:41:22.686Z,93954.34
2019-04-03T22:43:51.935Z,93957.34
2019-04-03T22:46:22.124Z,93953.30
2019-04-03T22:48:52.495Z,93961.68
2019-04-03T22:51:21.737Z,93953.88
2019-04-03T22:54:02.464Z,93947.61
2019-04-03T22:56:31.789Z,93957.22
2019-04-03T22:59:01.357Z,93961.12
2019-04-03T23:01:30.565Z,93941.44
2019-04-03T23:03:59.835Z,93933.60
2019-04-03T23:06:29.083Z,93925.76
2019-04-03T23:08:58.349Z,93909.95
2019-04-03T23:11:27.563Z,93919.92
2019-04-03T23:13:56.839Z,93919.23
2019-04-03T23:16:26.057Z,93915.63
2019-04-03T23:18:55.363Z,93913.36
2019-04-03T23:21:24.571Z,93910.04
2019-04-03T23:23:53.838Z,93902.05
2019-04-03T23:26:23.179Z,93893.66
2019-04-03T23:28:52.387Z,93898.95
2019-04-03T23:31:21.974Z,93895.70
2019-04-03T23:33:51.182Z,93883.40
2019-04-03T23:36:21.084Z,93883.33
2019-04-03T23:38:51.400Z,93879.55
2019-04-03T23:41:20.639Z,93877.73
2019-04-03T23:43:49.862Z,93874.66
2019-04-03T23:46:19.113Z,93863.23
2019-04-03T23:48:49.029Z,93881.87
2019-04-03T23:51:23.563Z,93884.14
2019-04-03T23:53:50.773Z,93879.91
2019-04-03T23:56:20.277Z,93890.55
2019-04-03T23:58:49.803Z,93876.39
